createdAt,value
2019-02-10T00:03:20.593Z,6.88
2019-02-10T00:07:24.044Z,6.93
2019-02-10T00:11:27.499Z,7.00
2019-02-10T00:15:30.956Z,7.07
2019-02-10T00:19:34.404Z,7.16
2019-02-10T00:23:37.864Z,7.23
2019-02-10T00:27:41.319Z,7.27
2019-02-10T00:31:44.788Z,7.30
2019-02-10T00:35:48.229Z,7.29
2019-02-10T00:39:51.690Z,7.25
2019-02-10T00:43:55.144Z,7.23
2019-02-10T00:47:58.614Z,7.21
2019-02-10T00:52:02.082Z,7.12
2019-02-10T00:56:05.527Z,7.06
2019-02-10T01:00:08.988Z,7.00
2019-02-10T01:04:12.447Z,6.98
2019-02-10T01:08:15.903Z,6.96
2019-02-10T01:12:19.636Z,6.98
2019-02-10T01:16:23.079Z,7.00
2019-02-10T01:20:26.538Z,7.04
2019-02-10T01:24:29.993Z,7.10
2019-02-10T01:28:33.454Z,7.13
2019-02-10T01:32:36.914Z,7.14
2019-02-10T01:36:40.375Z,7.15
2019-02-10T01:40:43.819Z,7.13
2019-02-10T01:44:47.272Z,7.11
2019-02-10T01:48:50.730Z,7.15
2019-02-10T01:52:54.186Z,7.19
2019-02-10T01:56:57.640Z,7.23
2019-02-10T02:01:01.097Z,7.15
2019-02-10T02:05:05.322Z,7.02
2019-02-10T02:09:10.445Z,7.25
2019-02-10T02:13:13.897Z,7.15
2019-02-10T02:17:17.361Z,7.05
2019-02-10T02:21:20.825Z,6.95
2019-02-10T02:25:24.279Z,6.87
2019-02-10T02:29:27.738Z,6.82
2019-02-10T02:33:31.181Z,6.73
2019-02-10T02:37:34.638Z,6.67
2019-02-10T02:41:38.093Z,6.67
2019-02-10T02:45:41.549Z,6.68
2019-02-10T02:49:45.044Z,6.64
2019-02-10T02:53:48.461Z,6.64
2019-02-10T02:57:51.943Z,6.43
2019-02-10T03:01:55.369Z,6.28
2019-02-10T03:05:58.832Z,6.20
2019-02-10T03:10:02.293Z,6.22
2019-02-10T03:14:08.456Z,6.31
2019-02-10T03:18:11.916Z,6.46
2019-02-10T03:22:15.373Z,6.61
2019-02-10T03:26:18.831Z,6.72
2019-02-10T03:30:22.293Z,6.81
2019-02-10T03:34:25.745Z,6.85
2019-02-10T03:38:29.194Z,6.88
2019-02-10T03:42:32.647Z,6.83
2019-02-10T03:46:36.109Z,6.81
2019-02-10T03:50:39.576Z,6.77
2019-02-10T03:54:43.042Z,6.75
2019-02-10T03:58:46.485Z,6.67
2019-02-10T04:02:49.941Z,6.66
2019-02-10T04:06:53.395Z,6.66
2019-02-10T04:10:56.855Z,6.62
2019-02-10T04:15:00.319Z,6.58
2019-02-10T04:19:03.758Z,6.53
2019-02-10T04:23:08.687Z,6.52
2019-02-10T04:27:12.201Z,6.50
2019-02-10T04:31:15.606Z,6.46
2019-02-10T04:35:19.069Z,6.43
2019-02-10T04:39:22.543Z,6.47
2019-02-10T04:43:26.000Z,6.51
2019-02-10T04:47:29.464Z,6.55
2019-02-10T04:51:32.920Z,6.81
2019-02-10T04:55:36.381Z,6.83
2019-02-10T04:59:39.828Z,6.81
2019-02-10T05:03:43.288Z,6.81
2019-02-10T05:07:54.259Z,6.83
2019-02-10T05:11:51.889Z,6.87
2019-02-10T05:15:55.349Z,6.88
2019-02-10T05:19:58.809Z,6.86
2019-02-10T05:24:03.790Z,6.81
2019-02-10T05:28:07.404Z,6.76
2019-02-10T05:32:10.874Z,6.75
2019-02-10T05:36:14.311Z,6.70
2019-02-10T05:40:17.771Z,6.66
2019-02-10T05:44:21.218Z,6.64
2019-02-10T05:48:24.674Z,6.64
2019-02-10T05:52:28.119Z,6.64
2019-02-10T05:56:31.571Z,6.59
2019-02-10T06:00:35.029Z,6.61
2019-02-10T06:04:38.480Z,6.64
2019-02-10T06:08:41.951Z,6.67
2019-02-10T06:12:45.384Z,6.74
2019-02-10T06:16:48.843Z,6.68
2019-02-10T06:20:52.304Z,6.66
2019-02-10T06:24:55.769Z,6.68
2019-02-10T06:28:59.247Z,6.68
2019-02-10T06:33:02.696Z,6.69
2019-02-10T06:37:06.153Z,6.67
2019-02-10T06:41:09.616Z,6.68
2019-02-10T06:45:13.074Z,6.70
2019-02-10T06:49:17.504Z,6.74
2019-02-10T06:53:20.954Z,6.75
2019-02-10T06:57:24.395Z,6.79
2019-02-10T07:01:29.504Z,6.84
2019-02-10T07:05:32.960Z,6.85
2019-02-10T07:09:36.401Z,6.85
2019-02-10T07:13:39.850Z,6.81
2019-02-10T07:17:43.307Z,6.79
2019-02-10T07:21:46.760Z,6.79
2019-02-10T07:25:50.215Z,6.81
2019-02-10T07:29:53.659Z,6.84
2019-02-10T07:33:58.542Z,6.88
2019-02-10T07:38:02.257Z,6.93
2019-02-10T07:42:05.707Z,6.99
2019-02-10T07:46:09.172Z,7.05
2019-02-10T07:50:12.613Z,7.12
2019-02-10T07:54:16.082Z,7.15
2019-02-10T07:58:19.523Z,7.19
2019-02-10T08:02:22.972Z,7.28
2019-02-10T08:06:26.426Z,7.34
2019-02-10T08:10:29.875Z,7.43
2019-02-10T08:14:33.327Z,7.47
2019-02-10T08:18:36.780Z,7.50
2019-02-10T08:22:40.226Z,7.57
2019-02-10T08:26:43.691Z,7.66
2019-02-10T08:30:47.137Z,7.74
2019-02-10T08:34:50.591Z,7.78
2019-02-10T08:38:54.729Z,7.84
2019-02-10T08:42:58.171Z,7.93
2019-02-10T08:47:01.616Z,7.96
2019-02-10T08:51:05.056Z,7.99
2019-02-10T08:55:08.501Z,7.99
2019-02-10T08:59:11.961Z,7.98
2019-02-10T09:03:19.662Z,7.94
2019-02-10T09:07:20.556Z,7.94
2019-02-10T09:11:24.001Z,8.43
2019-02-10T09:15:27.459Z,9.35
2019-02-10T09:19:30.913Z,9.11
2019-02-10T09:23:34.366Z,9.91
2019-02-10T09:27:37.805Z,9.36
2019-02-10T09:31:41.255Z,8.96
2019-02-10T09:35:44.709Z,8.69
2019-02-10T09:39:48.171Z,8.57
2019-02-10T09:43:51.621Z,8.46
2019-02-10T09:47:55.068Z,8.33
2019-02-10T09:51:58.530Z,8.31
2019-02-10T09:56:01.979Z,8.33
2019-02-10T10:00:06.502Z,8.43
2019-02-10T10:04:09.971Z,8.57
2019-02-10T10:08:13.433Z,8.63
2019-02-10T10:12:16.883Z,8.66
2019-02-10T10:16:20.349Z,8.70
2019-02-10T10:20:23.794Z,8.68
2019-02-10T10:24:27.252Z,8.69
2019-02-10T10:28:30.693Z,8.67
2019-02-10T10:32:34.155Z,8.72
2019-02-10T10:36:37.609Z,8.73
2019-02-10T10:40:41.064Z,8.77
2019-02-10T10:44:44.517Z,8.84
2019-02-10T10:48:47.961Z,8.88
2019-02-10T10:52:51.425Z,8.81
2019-02-10T10:56:54.876Z,8.74
2019-02-10T11:00:58.326Z,8.73
2019-02-10T11:05:01.777Z,8.78
2019-02-10T11:09:05.220Z,8.80
2019-02-10T11:13:08.677Z,8.83
2019-02-10T11:17:12.133Z,8.79
2019-02-10T11:21:15.600Z,8.81
2019-02-10T11:25:19.046Z,8.85
2019-02-10T11:29:22.500Z,8.91
2019-02-10T11:33:25.939Z,8.98
2019-02-10T11:37:31.090Z,9.08
2019-02-10T11:41:34.621Z,9.15
2019-02-10T11:45:38.074Z,9.22
2019-02-10T11:49:41.516Z,9.25
2019-02-10T11:53:46.574Z,9.21
2019-02-10T11:57:50.305Z,9.19
2019-02-10T12:01:53.780Z,9.19
2019-02-10T12:05:57.236Z,9.22
2019-02-10T12:10:00.681Z,9.27
2019-02-10T12:14:04.142Z,9.30
2019-02-10T12:18:07.597Z,9.37
2019-02-10T12:22:11.045Z,9.43
2019-02-10T12:26:14.509Z,9.53
2019-02-10T12:30:17.953Z,9.59
2019-02-10T12:34:21.399Z,9.62
2019-02-10T12:38:24.857Z,9.61
2019-02-10T12:42:28.318Z,9.60
2019-02-10T12:46:31.771Z,10.05
2019-02-10T12:50:35.219Z,11.33
2019-02-10T12:54:38.690Z,11.35
2019-02-10T12:58:42.137Z,10.68
2019-02-10T13:02:45.597Z,10.37
2019-02-10T13:06:49.059Z,10.21
2019-02-10T13:10:53.575Z,10.19
2019-02-10T13:14:58.080Z,10.22
2019-02-10T13:19:01.540Z,10.18
2019-02-10T13:23:05.008Z,10.13
2019-02-10T13:27:08.462Z,10.13
2019-02-10T13:31:11.913Z,10.15
2019-02-10T13:35:15.372Z,10.16
2019-02-10T13:39:18.852Z,10.17
2019-02-10T13:43:22.327Z,10.12
2019-02-10T13:47:25.772Z,10.10
2019-02-10T13:51:29.246Z,10.06
2019-02-10T13:55:32.697Z,10.05
2019-02-10T13:59:36.177Z,10.03
2019-02-10T14:03:39.631Z,10.00
2019-02-10T14:07:43.086Z,9.94
2019-02-10T14:11:46.563Z,9.86
2019-02-10T14:15:49.995Z,9.81
2019-02-10T14:19:53.450Z,9.74
2019-02-10T14:23:56.912Z,9.63
2019-02-10T14:28:00.353Z,9.64
2019-02-10T14:32:03.806Z,9.62
2019-02-10T14:36:07.260Z,9.70
2019-02-10T14:40:10.714Z,9.66
2019-02-10T14:44:14.170Z,9.63
2019-02-10T14:48:17.612Z,9.55
2019-02-10T14:52:21.063Z,9.51
2019-02-10T14:56:24.521Z,9.52
2019-02-10T15:00:27.974Z,9.54
2019-02-10T15:04:31.432Z,9.51
2019-02-10T15:08:35.942Z,9.41
2019-02-10T15:12:39.406Z,9.32
2019-02-10T15:16:42.864Z,9.31
2019-02-10T15:20:46.313Z,9.36
2019-02-10T15:24:49.772Z,9.34
2019-02-10T15:28:53.222Z,9.25
2019-02-10T15:32:56.695Z,9.17
2019-02-10T15:37:00.151Z,9.16
2019-02-10T15:41:03.608Z,9.02
2019-02-10T15:45:07.062Z,9.06
2019-02-10T15:49:10.498Z,9.64
2019-02-10T15:53:13.962Z,10.06
2019-02-10T15:57:17.426Z,10.56
2019-02-10T16:01:20.889Z,10.69
2019-02-10T16:05:24.420Z,11.06
2019-02-10T16:09:27.869Z,11.33
2019-02-10T16:13:31.332Z,11.43
2019-02-10T16:17:34.792Z,11.36
2019-02-10T16:21:38.252Z,11.63
2019-02-10T16:25:41.707Z,11.72
2019-02-10T16:29:45.158Z,11.14
2019-02-10T16:33:48.622Z,10.42
2019-02-10T16:37:52.078Z,9.88
2019-02-10T16:41:55.536Z,9.43
2019-02-10T16:45:58.997Z,9.20
2019-02-10T16:50:02.448Z,9.05
2019-02-10T16:54:05.908Z,8.88
2019-02-10T16:58:10.428Z,8.79
2019-02-10T17:02:13.884Z,8.68
2019-02-10T17:06:17.339Z,8.55
2019-02-10T17:10:20.800Z,8.52
2019-02-10T17:14:24.247Z,8.44
2019-02-10T17:18:27.701Z,8.34
2019-02-10T17:22:31.155Z,8.23
2019-02-10T17:26:34.603Z,8.14
2019-02-10T17:30:38.050Z,8.04
2019-02-10T17:34:41.498Z,7.91
2019-02-10T17:38:44.962Z,7.91
2019-02-10T17:42:48.412Z,7.81
2019-02-10T17:46:51.867Z,7.73
2019-02-10T17:50:55.310Z,7.62
2019-02-10T17:54:58.766Z,7.50
2019-02-10T17:59:02.224Z,7.42
2019-02-10T18:03:05.680Z,7.37
2019-02-10T18:07:09.165Z,7.27
2019-02-10T18:11:12.609Z,7.15
2019-02-10T18:15:17.706Z,7.05
2019-02-10T18:19:25.732Z,7.04
2019-02-10T18:23:30.824Z,7.08
2019-02-10T18:27:35.922Z,6.99
2019-02-10T18:31:49.892Z,6.96
2019-02-10T18:35:57.654Z,6.96
2019-02-10T18:40:18.055Z,6.91
2019-02-10T18:44:32.145Z,6.87
2019-02-10T18:48:37.243Z,6.87
2019-02-10T18:52:42.328Z,6.80
2019-02-10T18:56:47.420Z,6.75
2019-02-10T19:00:55.229Z,6.71
2019-02-10T19:05:03.363Z,6.71
2019-02-10T19:09:20.445Z,6.73
2019-02-10T19:13:41.912Z,6.82
2019-02-10T19:17:55.858Z,6.90
2019-02-10T19:22:03.914Z,6.88
2019-02-10T19:26:09.011Z,6.83
2019-02-10T19:30:14.117Z,7.55
2019-02-10T19:34:21.896Z,8.67
2019-02-10T19:38:38.958Z,9.58
2019-02-10T19:42:46.845Z,8.98
2019-02-10T19:46:57.917Z,8.25
2019-02-10T19:51:21.048Z,7.71
2019-02-10T19:55:29.050Z,7.35
2019-02-10T19:59:34.125Z,7.13
2019-02-10T20:03:42.136Z,7.01
2019-02-10T20:07:53.088Z,6.91
2019-02-10T20:12:17.645Z,6.81
2019-02-10T20:16:25.552Z,6.75
2019-02-10T20:20:42.671Z,6.76
2019-02-10T20:24:50.731Z,6.72
2019-02-10T20:29:04.599Z,6.72
2019-02-10T20:33:21.709Z,6.71
2019-02-10T20:37:32.644Z,6.70
2019-02-10T20:41:40.461Z,6.65
2019-02-10T20:45:45.547Z,6.51
2019-02-10T20:49:50.661Z,6.47
2019-02-10T20:54:04.770Z,6.47
2019-02-10T20:58:36.652Z,6.50
2019-02-10T21:02:50.743Z,6.51
2019-02-10T21:07:12.238Z,6.41
2019-02-10T21:11:18.393Z,6.37
2019-02-10T21:15:39.713Z,6.61
2019-02-10T21:19:44.807Z,6.52
2019-02-10T21:24:04.962Z,6.39
2019-02-10T21:28:10.079Z,6.29
2019-02-10T21:32:33.226Z,6.22
2019-02-10T21:36:38.312Z,6.20
2019-02-10T21:40:46.213Z,6.12
2019-02-10T21:44:51.310Z,6.06
2019-02-10T21:48:56.434Z,5.99
2019-02-10T21:52:59.890Z,5.93
2019-02-10T21:57:03.337Z,5.89
2019-02-10T22:01:06.794Z,5.91
2019-02-10T22:05:11.235Z,5.95
2019-02-10T22:09:14.713Z,5.88
2019-02-10T22:13:18.129Z,5.80
2019-02-10T22:17:21.565Z,5.76
2019-02-10T22:21:25.025Z,5.74
2019-02-10T22:25:28.476Z,5.69
2019-02-10T22:29:31.932Z,5.64
2019-02-10T22:33:35.387Z,5.61
2019-02-10T22:37:38.836Z,5.57
2019-02-10T22:41:42.292Z,5.50
2019-02-10T22:45:45.750Z,5.46
2019-02-10T22:49:50.261Z,5.44
2019-02-10T22:53:53.714Z,5.42
2019-02-10T22:57:57.158Z,5.37
2019-02-10T23:02:00.616Z,5.34
2019-02-10T23:06:04.062Z,5.46
2019-02-10T23:10:07.515Z,5.43
2019-02-10T23:14:10.977Z,5.33
2019-02-10T23:18:14.414Z,5.24
2019-02-10T23:22:17.883Z,5.14
2019-02-10T23:26:21.336Z,5.06
2019-02-10T23:30:24.791Z,5.00
2019-02-10T23:34:28.229Z,4.98
2019-02-10T23:38:31.682Z,4.97
2019-02-10T23:42:35.138Z,4.99
2019-02-10T23:46:38.588Z,4.98
2019-02-10T23:50:42.037Z,4.91
2019-02-10T23:54:45.478Z,4.89
2019-02-10T23:58:48.936Z,4.85
